Terminal Aerodrome Forecast
Issued by NWS Duluth, MN

Home | Current Version | Previous Version | Text Only | Print | Product List | Glossary On
Versions: 1 2 3 4 5 6 7 8 9 10 11 12 13 14 15 16 17 18 19 20 21
000
FTUS43 KDLH 181103 AAB
TAFDLH
TAF AMD
KDLH 181103Z 1811/1906 31005KT P6SM SCT020 BKN070
      TEMPO 1811/1814 BKN020 OVC070
     FM181500 29005KT P6SM SCT020
     FM181800 34005KT P6SM VCTS SCT030CB BKN070
      TEMPO 1818/1821 6SM TSRA BKN030CB OVC070
     FM190000 28004KT P6SM SCT100=

USA.gov is the U.S. government's official web portal to all federal, state and local government web resources and services.